createdAt,value
2018-05-03T00:00:55.716Z,99.55
2018-05-03T00:01:54.894Z,99.98
2018-05-03T00:02:54.810Z,99.99
2018-05-03T00:03:54.809Z,99.99
2018-05-03T00:04:54.807Z,99.99
2018-05-03T00:05:54.806Z,99.99
2018-05-03T00:06:54.803Z,99.99
2018-05-03T00:07:54.803Z,99.99
2018-05-03T00:08:54.803Z,99.99
2018-05-03T00:09:54.798Z,99.99
2018-05-03T00:10:54.797Z,99.99
2018-05-03T00:11:54.795Z,99.99
2018-05-03T00:12:54.794Z,99.99
2018-05-03T00:13:54.791Z,99.99
2018-05-03T00:14:54.790Z,99.99
2018-05-03T00:15:54.789Z,99.79
2018-05-03T00:16:54.788Z,99.99
2018-05-03T00:17:54.785Z,99.99
2018-05-03T00:18:54.783Z,99.99
2018-05-03T00:19:54.784Z,99.99
2018-05-03T00:20:56.219Z,99.99
2018-05-03T00:21:54.778Z,99.99
2018-05-03T00:22:54.777Z,99.99
2018-05-03T00:23:54.776Z,99.99
2018-05-03T00:24:54.775Z,99.99
2018-05-03T00:25:54.772Z,99.99
2018-05-03T00:26:54.772Z,99.99
2018-05-03T00:27:54.771Z,99.99
2018-05-03T00:28:54.769Z,99.99
2018-05-03T00:29:54.765Z,99.99
2018-05-03T00:30:54.765Z,99.99
2018-05-03T00:31:54.761Z,99.99
2018-05-03T00:32:54.761Z,99.99
2018-05-03T00:33:54.758Z,99.99
2018-05-03T00:34:54.756Z,99.99
2018-05-03T00:35:54.754Z,99.99
2018-05-03T00:36:54.753Z,99.99
2018-05-03T00:37:54.766Z,99.99
2018-05-03T00:38:55.723Z,99.99
2018-05-03T00:39:54.750Z,99.99
2018-05-03T00:40:54.747Z,99.99
2018-05-03T00:41:54.748Z,99.99
2018-05-03T00:42:54.743Z,99.99
2018-05-03T00:43:54.741Z,99.99
2018-05-03T00:44:54.741Z,99.99
2018-05-03T00:45:54.739Z,99.99
2018-05-03T00:46:54.735Z,99.99
2018-05-03T00:47:55.722Z,99.99
2018-05-03T00:48:54.743Z,99.99
2018-05-03T00:49:55.223Z,99.93
2018-05-03T00:50:54.729Z,99.99
2018-05-03T00:51:54.728Z,99.99
2018-05-03T00:52:54.729Z,99.99
2018-05-03T00:53:54.725Z,99.99
2018-05-03T00:54:54.723Z,99.99
2018-05-03T00:55:54.733Z,99.99
2018-05-03T00:56:54.720Z,99.99
2018-05-03T00:57:54.719Z,99.99
2018-05-03T00:58:55.230Z,99.99
2018-05-03T00:59:54.715Z,99.99
2018-05-03T01:00:54.716Z,99.99
2018-05-03T01:01:54.711Z,99.99
2018-05-03T01:02:54.711Z,99.99
2018-05-03T01:03:54.708Z,99.99
2018-05-03T01:04:54.708Z,99.99
2018-05-03T01:05:54.705Z,99.99
2018-05-03T01:06:54.706Z,99.99
2018-05-03T01:07:54.702Z,99.99
2018-05-03T01:08:54.701Z,99.99
2018-05-03T01:09:54.698Z,99.99
2018-05-03T01:10:54.697Z,99.99
2018-05-03T01:11:54.695Z,99.99
2018-05-03T01:12:54.693Z,99.99
2018-05-03T01:13:54.691Z,99.99
2018-05-03T01:14:54.691Z,99.99
2018-05-03T01:15:54.689Z,99.99
2018-05-03T01:16:54.689Z,99.99
2018-05-03T01:17:54.684Z,99.99
2018-05-03T01:18:54.683Z,99.99
2018-05-03T01:19:54.684Z,99.99
2018-05-03T01:20:54.682Z,99.99
2018-05-03T01:21:54.694Z,99.99
2018-05-03T01:22:54.678Z,99.99
2018-05-03T01:23:54.755Z,99.99
2018-05-03T01:24:54.674Z,99.99
2018-05-03T01:25:55.227Z,99.99
2018-05-03T01:26:54.675Z,99.99
2018-05-03T01:27:54.671Z,99.99
2018-05-03T01:28:54.672Z,99.99
2018-05-03T01:29:54.666Z,99.99
2018-05-03T01:30:54.664Z,99.99
2018-05-03T01:31:54.664Z,99.99
2018-05-03T01:32:54.667Z,99.99
2018-05-03T01:33:54.662Z,99.99
2018-05-03T01:34:54.658Z,99.99
2018-05-03T01:35:54.658Z,99.99
2018-05-03T01:36:54.655Z,99.99
2018-05-03T01:37:54.655Z,99.99
2018-05-03T01:38:54.653Z,99.99
2018-05-03T01:39:54.651Z,99.99
2018-05-03T01:40:54.650Z,99.99
2018-05-03T01:41:54.648Z,99.99
2018-05-03T01:42:54.653Z,99.99
2018-05-03T01:43:54.644Z,99.99
2018-05-03T01:44:54.643Z,99.99
2018-05-03T01:45:54.642Z,99.99
2018-05-03T01:46:54.644Z,99.99
2018-05-03T01:47:54.638Z,99.99
2018-05-03T01:48:54.639Z,99.99
2018-05-03T01:49:54.637Z,99.99
2018-05-03T01:50:54.634Z,99.99
2018-05-03T01:51:54.638Z,99.99
2018-05-03T01:52:54.635Z,99.99
2018-05-03T01:53:54.628Z,99.99
2018-05-03T01:54:54.626Z,99.99
2018-05-03T01:55:54.626Z,99.99
2018-05-03T01:56:55.234Z,99.99
2018-05-03T01:57:54.627Z,99.99
2018-05-03T01:58:54.625Z,99.99
2018-05-03T01:59:54.625Z,99.99
2018-05-03T02:00:54.620Z,99.99
2018-05-03T02:01:54.616Z,99.99
2018-05-03T02:02:54.616Z,99.99
2018-05-03T02:03:54.650Z,99.99
2018-05-03T02:04:54.613Z,99.99
2018-05-03T02:05:54.645Z,99.99
2018-05-03T02:06:54.614Z,99.99
2018-05-03T02:07:54.606Z,99.99
2018-05-03T02:08:54.614Z,99.99
2018-05-03T02:09:54.601Z,99.99
2018-05-03T02:10:54.600Z,99.99
2018-05-03T02:11:54.609Z,99.99
2018-05-03T02:12:54.598Z,99.99
2018-05-03T02:13:55.295Z,99.99
2018-05-03T02:14:54.593Z,99.99
2018-05-03T02:15:54.610Z,99.99
2018-05-03T02:16:54.590Z,99.99
2018-05-03T02:17:54.588Z,99.99
2018-05-03T02:18:54.592Z,99.99
2018-05-03T02:19:54.587Z,99.99
2018-05-03T02:20:54.594Z,99.99
2018-05-03T02:21:54.583Z,99.99
2018-05-03T02:22:54.583Z,99.99
2018-05-03T02:23:54.587Z,99.99
2018-05-03T02:24:54.583Z,99.99
2018-05-03T02:25:55.233Z,99.99
2018-05-03T02:26:54.586Z,99.99
2018-05-03T02:27:54.573Z,99.99
2018-05-03T02:28:54.575Z,99.99
2018-05-03T02:29:54.566Z,99.99
2018-05-03T02:30:54.566Z,99.99
2018-05-03T02:31:54.561Z,99.99
2018-05-03T02:32:54.561Z,99.99
2018-05-03T02:33:54.559Z,99.99
2018-05-03T02:34:55.235Z,99.99
2018-05-03T02:35:55.235Z,99.99
2018-05-03T02:36:54.551Z,99.99
2018-05-03T02:37:54.551Z,99.99
2018-05-03T02:38:54.550Z,99.99
2018-05-03T02:39:54.549Z,99.99
2018-05-03T02:40:54.544Z,99.99
2018-05-03T02:41:54.543Z,99.99
2018-05-03T02:42:54.541Z,99.99
2018-05-03T02:43:54.542Z,99.99
2018-05-03T02:44:54.540Z,99.99
2018-05-03T02:45:54.533Z,99.99
2018-05-03T02:46:54.533Z,99.99
2018-05-03T02:47:54.530Z,99.99
2018-05-03T02:48:54.528Z,99.99
2018-05-03T02:49:54.527Z,99.99
2018-05-03T02:50:54.529Z,99.99
2018-05-03T02:51:54.522Z,99.99
2018-05-03T02:52:54.524Z,99.99
2018-05-03T02:53:54.521Z,99.99
2018-05-03T02:54:54.532Z,99.99
2018-05-03T02:55:54.517Z,99.99
2018-05-03T02:56:54.513Z,99.99
2018-05-03T02:57:54.508Z,99.99
2018-05-03T02:58:54.521Z,99.99
2018-05-03T02:59:54.502Z,99.99
2018-05-03T03:00:54.507Z,99.99
2018-05-03T03:01:54.505Z,99.99
2018-05-03T03:02:54.500Z,99.99
2018-05-03T03:03:54.500Z,99.99
2018-05-03T03:04:54.507Z,99.99
2018-05-03T03:05:54.509Z,99.99
2018-05-03T03:06:54.507Z,99.99
2018-05-03T03:07:54.514Z,99.99
2018-05-03T03:08:54.488Z,99.99
2018-05-03T03:09:54.483Z,99.99
2018-05-03T03:10:54.485Z,99.99
2018-05-03T03:11:54.477Z,99.99
2018-05-03T03:12:54.475Z,99.99
2018-05-03T03:13:54.474Z,99.99
2018-05-03T03:14:54.470Z,99.99
2018-05-03T03:15:54.468Z,99.99
2018-05-03T03:16:55.241Z,99.99
2018-05-03T03:17:54.464Z,99.99
2018-05-03T03:18:54.461Z,99.99
2018-05-03T03:19:54.460Z,99.99
2018-05-03T03:20:54.456Z,99.99
2018-05-03T03:21:54.472Z,99.99
2018-05-03T03:22:54.451Z,99.99
2018-05-03T03:23:54.449Z,99.99
2018-05-03T03:24:54.448Z,99.99
2018-05-03T03:25:54.444Z,99.99
2018-05-03T03:26:54.443Z,99.99
2018-05-03T03:27:54.444Z,99.99
2018-05-03T03:28:54.439Z,99.99
2018-05-03T03:29:54.437Z,99.99
2018-05-03T03:30:54.432Z,99.99
2018-05-03T03:31:54.435Z,99.99
2018-05-03T03:32:54.428Z,99.99
2018-05-03T03:33:54.426Z,99.99
2018-05-03T03:34:54.423Z,99.99
2018-05-03T03:35:54.423Z,99.99
2018-05-03T03:36:54.420Z,99.99
2018-05-03T03:37:54.416Z,99.99
2018-05-03T03:38:54.416Z,99.99
2018-05-03T03:39:54.413Z,99.99
2018-05-03T03:40:54.408Z,99.99
2018-05-03T03:41:54.406Z,99.99
2018-05-03T03:42:54.403Z,99.99
2018-05-03T03:43:54.403Z,99.99
2018-05-03T03:44:54.398Z,99.99
2018-05-03T03:45:55.242Z,99.99
2018-05-03T03:46:54.394Z,99.99
2018-05-03T03:47:54.395Z,99.99
2018-05-03T03:48:54.388Z,99.99
2018-05-03T03:49:54.396Z,99.99
2018-05-03T03:50:54.383Z,99.99
2018-05-03T03:51:54.381Z,99.99
2018-05-03T03:52:54.386Z,99.99
2018-05-03T03:53:54.376Z,99.99
2018-05-03T03:54:55.243Z,99.99
2018-05-03T03:55:54.372Z,99.99
2018-05-03T03:56:54.368Z,99.99
2018-05-03T03:57:54.367Z,99.99
2018-05-03T03:58:54.362Z,99.99
2018-05-03T03:59:54.360Z,99.99
2018-05-03T04:00:54.359Z,99.99
2018-05-03T04:01:54.354Z,99.99
2018-05-03T04:02:54.353Z,99.99
2018-05-03T04:03:54.350Z,99.99
2018-05-03T04:04:54.347Z,99.99
2018-05-03T04:05:54.345Z,99.99
2018-05-03T04:06:54.341Z,99.99
2018-05-03T04:07:54.338Z,99.99
2018-05-03T04:08:54.340Z,99.99
2018-05-03T04:09:54.332Z,99.99
2018-05-03T04:10:54.331Z,99.99
2018-05-03T04:11:54.328Z,99.99
2018-05-03T04:12:54.326Z,99.99
2018-05-03T04:13:54.323Z,99.99
2018-05-03T04:14:54.323Z,99.99
2018-05-03T04:15:54.319Z,99.99
2018-05-03T04:16:54.316Z,99.99
2018-05-03T04:17:55.247Z,99.99
2018-05-03T04:18:54.321Z,99.99
2018-05-03T04:19:54.306Z,99.99
2018-05-03T04:20:54.315Z,99.99
2018-05-03T04:21:54.318Z,99.99
2018-05-03T04:22:54.310Z,99.99
2018-05-03T04:23:54.297Z,99.99
2018-05-03T04:24:54.296Z,99.99
2018-05-03T04:25:54.291Z,99.99
2018-05-03T04:26:55.248Z,99.99
2018-05-03T04:27:54.286Z,99.99
2018-05-03T04:28:54.284Z,99.99
2018-05-03T04:29:54.281Z,99.99
2018-05-03T04:30:54.279Z,99.99
2018-05-03T04:31:54.279Z,99.99
2018-05-03T04:32:54.275Z,99.99
2018-05-03T04:33:54.273Z,99.99
2018-05-03T04:34:54.321Z,99.99
2018-05-03T04:35:54.267Z,99.99
2018-05-03T04:36:54.267Z,99.99
2018-05-03T04:37:54.263Z,99.99
2018-05-03T04:38:54.262Z,99.99
2018-05-03T04:39:54.265Z,99.99
2018-05-03T04:40:54.259Z,99.99
2018-05-03T04:41:54.252Z,99.99
2018-05-03T04:42:54.252Z,99.99
2018-05-03T04:43:54.250Z,99.99
2018-05-03T04:44:54.247Z,99.99
2018-05-03T04:45:54.244Z,99.99
2018-05-03T04:46:54.291Z,99.99
2018-05-03T04:47:54.246Z,99.99
2018-05-03T04:48:54.243Z,99.99
2018-05-03T04:49:54.237Z,99.99
2018-05-03T04:50:54.234Z,99.99
2018-05-03T04:51:54.232Z,99.99
2018-05-03T04:52:54.806Z,99.99
2018-05-03T04:53:54.228Z,99.99
2018-05-03T04:54:54.226Z,99.99
2018-05-03T04:55:54.224Z,99.99
2018-05-03T04:56:54.222Z,99.99
2018-05-03T04:57:54.218Z,99.99
2018-05-03T04:58:54.218Z,99.99
2018-05-03T04:59:54.216Z,99.99
2018-05-03T05:00:54.215Z,98.50
2018-05-03T05:01:54.214Z,98.69
2018-05-03T05:02:54.209Z,98.22
2018-05-03T05:03:54.207Z,94.70
2018-05-03T05:04:54.210Z,92.99
2018-05-03T05:05:54.204Z,93.03
2018-05-03T05:06:54.199Z,91.79
2018-05-03T05:07:54.199Z,89.61
2018-05-03T05:08:54.201Z,89.32
2018-05-03T05:09:54.198Z,88.41
2018-05-03T05:10:54.193Z,87.46
2018-05-03T05:11:54.193Z,86.60
2018-05-03T05:12:54.194Z,85.27
2018-05-03T05:13:54.189Z,84.50
2018-05-03T05:14:54.189Z,83.93
2018-05-03T05:15:54.186Z,84.36
2018-05-03T05:16:54.185Z,83.93
2018-05-03T05:17:54.187Z,82.64
2018-05-03T05:18:54.181Z,82.83
2018-05-03T05:19:54.181Z,82.07
2018-05-03T05:20:54.180Z,83.12
2018-05-03T05:21:54.177Z,83.02
2018-05-03T05:22:54.177Z,82.07
2018-05-03T05:23:54.181Z,81.40
2018-05-03T05:24:54.175Z,81.30
2018-05-03T05:25:54.173Z,81.21
2018-05-03T05:26:54.172Z,81.40
2018-05-03T05:27:54.171Z,81.44
2018-05-03T05:28:54.171Z,81.35
2018-05-03T05:29:54.168Z,80.11
2018-05-03T05:30:54.172Z,79.91
2018-05-03T05:31:54.167Z,79.25
2018-05-03T05:32:54.168Z,78.67
2018-05-03T05:33:54.164Z,77.91
2018-05-03T05:34:54.163Z,77.53
2018-05-03T05:35:54.162Z,77.53
2018-05-03T05:36:54.167Z,77.53
2018-05-03T05:37:54.162Z,77.57
2018-05-03T05:38:54.201Z,77.00
2018-05-03T05:39:54.164Z,77.09
2018-05-03T05:40:54.163Z,76.33
2018-05-03T05:41:54.754Z,76.33
2018-05-03T05:42:54.759Z,76.90
2018-05-03T05:43:54.159Z,75.47
2018-05-03T05:44:54.168Z,75.18
2018-05-03T05:45:54.157Z,76.23
2018-05-03T05:46:54.157Z,76.04
2018-05-03T05:47:54.157Z,76.71
2018-05-03T05:48:54.156Z,75.76
2018-05-03T05:49:54.155Z,76.62
2018-05-03T05:50:54.159Z,76.42
2018-05-03T05:51:54.157Z,75.57
2018-05-03T05:52:54.156Z,74.80
2018-05-03T05:53:54.169Z,75.57
2018-05-03T05:54:54.154Z,75.66
2018-05-03T05:55:54.155Z,75.66
2018-05-03T05:56:54.756Z,74.71
2018-05-03T05:57:54.152Z,74.90
2018-05-03T05:58:54.154Z,73.94
2018-05-03T05:59:54.166Z,74.04
2018-05-03T06:00:54.159Z,74.23
2018-05-03T06:01:54.153Z,73.94
2018-05-03T06:02:54.155Z,74.42
2018-05-03T06:03:54.155Z,74.52
2018-05-03T06:04:54.155Z,74.13
2018-05-03T06:05:54.155Z,74.52
2018-05-03T06:06:54.159Z,73.66
2018-05-03T06:07:54.154Z,74.23
2018-05-03T06:08:54.154Z,73.56
2018-05-03T06:09:54.185Z,72.71
2018-05-03T06:10:54.155Z,73.18
2018-05-03T06:11:54.155Z,73.37
2018-05-03T06:12:54.154Z,73.47
2018-05-03T06:13:54.155Z,73.66
2018-05-03T06:14:54.763Z,74.52
2018-05-03T06:15:54.155Z,74.32
2018-05-03T06:16:54.154Z,73.47
2018-05-03T06:17:54.154Z,73.66
2018-05-03T06:18:54.155Z,74.52
2018-05-03T06:19:54.158Z,73.75
2018-05-03T06:20:54.156Z,72.99
2018-05-03T06:21:54.155Z,73.18
2018-05-03T06:22:54.155Z,73.08
2018-05-03T06:23:54.155Z,73.18
2018-05-03T06:24:54.156Z,73.18
2018-05-03T06:25:54.238Z,74.04
2018-05-03T06:26:54.158Z,73.66
2018-05-03T06:27:54.155Z,73.37
2018-05-03T06:28:54.157Z,73.66
2018-05-03T06:29:54.156Z,72.71
2018-05-03T06:30:54.157Z,72.55
2018-05-03T06:31:54.157Z,73.12
2018-05-03T06:32:54.155Z,72.64
2018-05-03T06:33:54.156Z,72.74
2018-05-03T06:34:54.156Z,72.93
2018-05-03T06:35:54.162Z,72.93
2018-05-03T06:36:54.159Z,72.93
2018-05-03T06:37:54.157Z,72.64
2018-05-03T06:38:54.245Z,72.74
2018-05-03T06:39:54.159Z,71.98
2018-05-03T06:40:54.157Z,71.88
2018-05-03T06:41:54.159Z,71.50
2018-05-03T06:42:54.159Z,71.21
2018-05-03T06:43:54.160Z,71.50
2018-05-03T06:44:54.164Z,71.34
2018-05-03T06:45:54.160Z,71.44
2018-05-03T06:46:54.161Z,70.39
2018-05-03T06:47:54.161Z,69.72
2018-05-03T06:48:54.161Z,69.66
2018-05-03T06:49:54.163Z,69.95
2018-05-03T06:50:54.164Z,68.35
2018-05-03T06:51:54.164Z,67.05
2018-05-03T06:52:54.169Z,65.84
2018-05-03T06:53:54.166Z,65.17
2018-05-03T06:54:54.168Z,65.52
2018-05-03T06:55:54.773Z,65.42
2018-05-03T06:56:54.171Z,65.52
2018-05-03T06:57:54.172Z,66.35
2018-05-03T06:58:54.174Z,66.06
2018-05-03T06:59:54.175Z,66.06
2018-05-03T07:00:54.176Z,67.11
2018-05-03T07:01:54.177Z,66.70
2018-05-03T07:02:54.186Z,67.46
2018-05-03T07:03:54.243Z,67.84
2018-05-03T07:04:54.186Z,68.04
2018-05-03T07:05:54.185Z,68.04
2018-05-03T07:06:54.194Z,67.55
2018-05-03T07:07:54.190Z,67.94
2018-05-03T07:08:54.191Z,68.23
2018-05-03T07:09:54.261Z,67.81
2018-05-03T07:10:54.195Z,67.94
2018-05-03T07:11:54.200Z,68.00
2018-05-03T07:12:54.198Z,68.38
2018-05-03T07:13:54.202Z,68.29
2018-05-03T07:14:54.202Z,68.90
2018-05-03T07:15:54.206Z,68.51
2018-05-03T07:16:54.232Z,68.57
2018-05-03T07:17:54.209Z,68.04
2018-05-03T07:18:54.209Z,68.51
2018-05-03T07:19:54.212Z,68.80
2018-05-03T07:20:54.213Z,68.04
2018-05-03T07:21:54.213Z,68.51
2018-05-03T07:22:54.215Z,67.84
2018-05-03T07:23:54.302Z,68.04
2018-05-03T07:24:54.223Z,68.70
2018-05-03T07:25:54.230Z,69.18
2018-05-03T07:26:54.223Z,68.76
2018-05-03T07:27:54.224Z,68.67
2018-05-03T07:28:54.227Z,68.29
2018-05-03T07:29:54.229Z,68.29
2018-05-03T07:30:54.232Z,68.67
2018-05-03T07:31:54.232Z,68.76
2018-05-03T07:32:54.234Z,68.57
2018-05-03T07:33:54.235Z,68.48
2018-05-03T07:34:54.319Z,68.38
2018-05-03T07:35:54.772Z,68.76
2018-05-03T07:36:54.239Z,68.96
2018-05-03T07:37:54.241Z,68.96
2018-05-03T07:38:54.241Z,69.05
2018-05-03T07:39:54.245Z,69.34
2018-05-03T07:40:54.316Z,69.24
2018-05-03T07:41:54.249Z,68.86
2018-05-03T07:42:54.248Z,69.53
2018-05-03T07:43:54.251Z,69.72
2018-05-03T07:44:54.774Z,69.72
2018-05-03T07:45:54.253Z,69.53
2018-05-03T07:46:54.253Z,68.61
2018-05-03T07:47:54.256Z,68.48
2018-05-03T07:48:54.258Z,68.48
2018-05-03T07:49:54.261Z,69.05
2018-05-03T07:50:54.259Z,68.67
2018-05-03T07:51:54.262Z,68.19
2018-05-03T07:52:54.264Z,68.61
2018-05-03T07:53:54.264Z,68.51
2018-05-03T07:54:54.342Z,68.32
2018-05-03T07:55:54.268Z,68.32
2018-05-03T07:56:54.271Z,68.23
2018-05-03T07:57:54.274Z,68.41
2018-05-03T07:58:54.273Z,68.61
2018-05-03T07:59:54.275Z,68.70
2018-05-03T08:00:54.280Z,68.32
2018-05-03T08:01:54.278Z,69.09
2018-05-03T08:02:54.284Z,69.18
2018-05-03T08:03:54.284Z,68.76
2018-05-03T08:04:54.286Z,68.32
2018-05-03T08:05:54.284Z,68.80
2018-05-03T08:06:54.287Z,68.90
2018-05-03T08:07:54.292Z,68.70
2018-05-03T08:08:54.291Z,68.51
2018-05-03T08:09:54.294Z,68.41
2018-05-03T08:10:54.367Z,68.61
2018-05-03T08:11:54.296Z,67.55
2018-05-03T08:12:55.779Z,68.51
2018-05-03T08:13:54.300Z,68.32
2018-05-03T08:14:54.301Z,69.02
2018-05-03T08:15:54.305Z,68.45
2018-05-03T08:16:54.306Z,67.97
2018-05-03T08:17:54.312Z,67.02
2018-05-03T08:18:54.311Z,66.83
2018-05-03T08:19:54.313Z,67.02
2018-05-03T08:20:54.314Z,67.02
2018-05-03T08:21:54.316Z,66.96
2018-05-03T08:22:54.319Z,66.76
2018-05-03T08:23:54.321Z,66.67
2018-05-03T08:24:54.323Z,66.28
2018-05-03T08:25:54.325Z,66.38
2018-05-03T08:26:54.327Z,66.67
2018-05-03T08:27:54.332Z,66.00
2018-05-03T08:28:54.334Z,65.52
2018-05-03T08:29:54.337Z,65.81
2018-05-03T08:30:54.341Z,65.71
2018-05-03T08:31:54.408Z,65.90
2018-05-03T08:32:54.344Z,66.47
2018-05-03T08:33:54.347Z,66.57
2018-05-03T08:34:54.350Z,66.57
2018-05-03T08:35:54.353Z,66.57
2018-05-03T08:36:54.358Z,66.03
2018-05-03T08:37:54.357Z,65.94
2018-05-03T08:38:54.361Z,65.45
2018-05-03T08:39:54.366Z,65.55
2018-05-03T08:40:54.370Z,66.70
2018-05-03T08:41:54.371Z,65.65
2018-05-03T08:42:54.376Z,65.74
2018-05-03T08:43:54.378Z,65.65
2018-05-03T08:44:54.382Z,66.22
2018-05-03T08:45:54.385Z,65.78
2018-05-03T08:46:54.388Z,65.39
2018-05-03T08:47:54.392Z,65.30
2018-05-03T08:48:54.398Z,65.39
2018-05-03T08:49:54.399Z,64.63
2018-05-03T08:50:54.403Z,65.39
2018-05-03T08:51:54.407Z,64.37
2018-05-03T08:52:54.410Z,63.06
2018-05-03T08:53:54.414Z,62.39
2018-05-03T08:54:54.417Z,62.33
2018-05-03T08:55:54.422Z,61.66
2018-05-03T08:56:54.426Z,60.89
2018-05-03T08:57:54.427Z,60.63
2018-05-03T08:58:54.438Z,59.89
2018-05-03T08:59:54.438Z,59.22
2018-05-03T09:00:54.441Z,58.36
2018-05-03T09:01:54.457Z,58.45
2018-05-03T09:02:54.450Z,59.03
2018-05-03T09:03:54.454Z,58.64
2018-05-03T09:04:54.458Z,58.45
2018-05-03T09:05:54.466Z,58.36
2018-05-03T09:06:54.470Z,59.03
2018-05-03T09:07:54.532Z,59.03
2018-05-03T09:08:54.478Z,58.64
2018-05-03T09:09:54.481Z,58.36
2018-05-03T09:10:54.495Z,58.55
2018-05-03T09:11:54.491Z,59.09
2018-05-03T09:12:54.495Z,59.86
2018-05-03T09:13:55.294Z,60.03
2018-05-03T09:14:54.505Z,60.03
2018-05-03T09:15:54.510Z,59.64
2018-05-03T09:16:54.517Z,60.12
2018-05-03T09:17:54.517Z,60.15
2018-05-03T09:18:56.293Z,59.96
2018-05-03T09:19:54.530Z,60.15
2018-05-03T09:20:54.542Z,60.72
2018-05-03T09:21:54.543Z,60.35
2018-05-03T09:22:54.545Z,59.86
2018-05-03T09:23:54.550Z,59.58
2018-05-03T09:24:54.554Z,60.05
2018-05-03T09:25:54.561Z,59.67
2018-05-03T09:26:54.598Z,60.72
2018-05-03T09:27:54.574Z,60.05
2018-05-03T09:28:54.575Z,60.12
2018-05-03T09:29:54.579Z,60.12
2018-05-03T09:30:54.584Z,60.60
2018-05-03T09:31:54.593Z,60.89
2018-05-03T09:32:54.595Z,61.18
2018-05-03T09:33:54.598Z,61.27
2018-05-03T09:34:54.605Z,61.75
2018-05-03T09:35:54.611Z,61.56
2018-05-03T09:36:54.614Z,62.01
2018-05-03T09:37:54.620Z,62.39
2018-05-03T09:38:54.625Z,62.30
2018-05-03T09:39:54.629Z,62.87
2018-05-03T09:40:54.636Z,63.16
2018-05-03T09:41:54.641Z,63.32
2018-05-03T09:42:54.644Z,64.18
2018-05-03T09:43:54.650Z,65.33
2018-05-03T09:44:54.655Z,65.33
2018-05-03T09:45:54.658Z,64.82
2018-05-03T09:46:54.664Z,65.30
2018-05-03T09:47:54.668Z,64.95
2018-05-03T09:48:54.676Z,64.56
2018-05-03T09:49:54.676Z,65.62
2018-05-03T09:50:54.683Z,65.05
2018-05-03T09:51:54.687Z,65.42
2018-05-03T09:52:54.692Z,65.39
2018-05-03T09:53:54.695Z,64.37
2018-05-03T09:54:55.300Z,65.52
2018-05-03T09:55:55.302Z,65.71
2018-05-03T09:56:54.716Z,65.62
2018-05-03T09:57:54.712Z,66.00
2018-05-03T09:58:54.716Z,66.09
2018-05-03T09:59:54.725Z,66.58
2018-05-03T10:00:55.308Z,66.58
2018-05-03T10:01:54.732Z,66.64
2018-05-03T10:02:54.734Z,66.64
2018-05-03T10:03:54.737Z,67.11
2018-05-03T10:04:54.933Z,67.11
2018-05-03T10:05:54.747Z,66.93
2018-05-03T10:06:54.749Z,67.11
2018-05-03T10:07:54.756Z,67.50
2018-05-03T10:08:54.759Z,66.74
2018-05-03T10:09:54.765Z,66.83
2018-05-03T10:10:54.766Z,66.74
2018-05-03T10:11:54.772Z,66.48
2018-05-03T10:12:55.308Z,66.35
2018-05-03T10:13:54.779Z,66.96
2018-05-03T10:14:54.781Z,67.25
2018-05-03T10:15:54.786Z,67.15
2018-05-03T10:16:54.791Z,67.05
2018-05-03T10:17:54.795Z,66.77
2018-05-03T10:18:54.799Z,66.77
2018-05-03T10:19:54.803Z,66.86
2018-05-03T10:20:54.806Z,66.96
2018-05-03T10:21:54.814Z,67.15
2018-05-03T10:22:54.813Z,66.67
2018-05-03T10:23:54.818Z,66.77
2018-05-03T10:24:54.822Z,65.58
2018-05-03T10:25:54.829Z,65.91
2018-05-03T10:26:54.830Z,66.48
2018-05-03T10:27:55.808Z,65.52
2018-05-03T10:28:54.838Z,65.42
2018-05-03T10:29:54.860Z,64.85
2018-05-03T10:30:54.845Z,65.52
2018-05-03T10:31:54.849Z,64.76
2018-05-03T10:32:55.809Z,63.99
2018-05-03T10:33:54.856Z,63.60
2018-05-03T10:34:54.860Z,63.42
2018-05-03T10:35:54.946Z,64.50
2018-05-03T10:36:54.869Z,63.60
2018-05-03T10:37:54.874Z,64.28
2018-05-03T10:38:54.877Z,63.45
2018-05-03T10:39:54.879Z,63.64
2018-05-03T10:40:54.885Z,63.54
2018-05-03T10:41:54.965Z,63.45
2018-05-03T10:42:54.890Z,63.64
2018-05-03T10:43:54.897Z,63.45
2018-05-03T10:44:54.903Z,63.35
2018-05-03T10:45:54.903Z,63.45
2018-05-03T10:46:55.812Z,63.26
2018-05-03T10:47:55.814Z,63.26
2018-05-03T10:48:54.916Z,63.64
2018-05-03T10:49:54.920Z,64.18
2018-05-03T10:50:54.923Z,64.50
2018-05-03T10:51:54.929Z,64.56
2018-05-03T10:52:54.933Z,64.47
2018-05-03T10:53:54.935Z,64.09
2018-05-03T10:54:54.939Z,64.31
2018-05-03T10:55:54.945Z,63.26
2018-05-03T10:56:54.946Z,63.73
2018-05-03T10:57:54.952Z,63.35
2018-05-03T10:58:54.956Z,63.92
2018-05-03T10:59:54.961Z,63.26
2018-05-03T11:00:54.969Z,63.54
2018-05-03T11:01:54.969Z,63.35
2018-05-03T11:02:54.973Z,63.45
2018-05-03T11:03:54.977Z,63.64
2018-05-03T11:04:54.981Z,63.96
2018-05-03T11:05:54.991Z,63.29
2018-05-03T11:06:54.992Z,63.00
2018-05-03T11:07:54.996Z,62.04
2018-05-03T11:08:54.997Z,61.78
2018-05-03T11:09:55.005Z,61.78
2018-05-03T11:10:55.006Z,60.15
2018-05-03T11:11:55.010Z,60.82
2018-05-03T11:12:55.020Z,61.78
2018-05-03T11:13:55.023Z,61.33
2018-05-03T11:14:55.029Z,59.64
2018-05-03T11:15:55.030Z,57.90
2018-05-03T11:16:55.035Z,56.95
2018-05-03T11:17:55.038Z,56.40
2018-05-03T11:18:55.044Z,55.60
2018-05-03T11:19:55.048Z,55.41
2018-05-03T11:20:55.052Z,54.74
2018-05-03T11:21:55.057Z,55.22
2018-05-03T11:22:55.065Z,55.15
2018-05-03T11:23:55.067Z,54.96
2018-05-03T11:24:55.078Z,55.24
2018-05-03T11:25:55.112Z,54.57
2018-05-03T11:26:55.086Z,54.67
2018-05-03T11:27:55.090Z,54.96
2018-05-03T11:28:55.110Z,55.05
2018-05-03T11:29:55.822Z,55.91
2018-05-03T11:30:55.103Z,55.66
2018-05-03T11:31:55.114Z,55.46
2018-05-03T11:32:55.116Z,54.60
2018-05-03T11:33:55.119Z,54.79
2018-05-03T11:34:55.125Z,53.74
2018-05-03T11:35:55.131Z,53.57
2018-05-03T11:36:55.227Z,54.72
2018-05-03T11:37:55.142Z,54.72
2018-05-03T11:38:55.827Z,53.86
2018-05-03T11:39:55.152Z,52.51
2018-05-03T11:40:55.159Z,52.80
2018-05-03T11:41:55.246Z,54.02
2018-05-03T11:42:55.830Z,53.83
2018-05-03T11:43:55.175Z,53.54
2018-05-03T11:44:55.183Z,52.81
2018-05-03T11:45:55.186Z,54.64
2018-05-03T11:46:55.190Z,54.80
2018-05-03T11:47:55.200Z,53.94
2018-05-03T11:48:55.204Z,53.66
2018-05-03T11:49:55.209Z,54.33
2018-05-03T11:50:55.216Z,53.68
2018-05-03T11:51:55.224Z,53.20
2018-05-03T11:52:55.223Z,53.30
2018-05-03T11:53:55.228Z,53.30
2018-05-03T11:54:55.234Z,53.80
2018-05-03T11:55:55.242Z,54.41
2018-05-03T11:56:55.246Z,53.54
2018-05-03T11:57:55.250Z,52.29
2018-05-03T11:58:55.261Z,52.97
2018-05-03T11:59:55.261Z,52.75
2018-05-03T12:00:55.267Z,54.19
2018-05-03T12:01:55.276Z,53.52
2018-05-03T12:02:55.279Z,52.20
2018-05-03T12:03:55.286Z,52.87
2018-05-03T12:04:55.291Z,53.64
2018-05-03T12:05:55.359Z,52.68
2018-05-03T12:06:55.301Z,51.91
2018-05-03T12:08:55.323Z,52.26
2018-05-03T12:09:55.326Z,52.26
2018-05-03T12:10:55.906Z,52.46
2018-05-03T12:11:55.346Z,53.11
2018-05-03T12:12:55.353Z,53.39
2018-05-03T12:13:55.349Z,54.55
2018-05-03T12:15:16.365Z,54.67
2018-05-03T12:15:55.401Z,55.15
2018-05-03T12:16:55.365Z,56.11
2018-05-03T12:17:55.369Z,55.46
2018-05-03T12:18:55.375Z,55.08
2018-05-03T12:19:55.382Z,54.99
2018-05-03T12:21:16.399Z,55.37
2018-05-03T12:21:55.499Z,55.44
2018-05-03T12:22:55.398Z,55.53
2018-05-03T12:23:55.401Z,56.21
2018-05-03T12:24:55.410Z,56.98
2018-05-03T12:25:55.411Z,57.43
2018-05-03T12:27:18.516Z,57.90
2018-05-03T12:27:55.428Z,57.81
2018-05-03T12:28:55.432Z,57.81
2018-05-03T12:29:55.441Z,58.87
2018-05-03T12:30:55.437Z,58.48
2018-05-03T12:31:55.443Z,58.64
2018-05-03T12:33:16.462Z,58.74
2018-05-03T12:33:55.455Z,59.61
2018-05-03T12:34:55.524Z,59.22
2018-05-03T12:35:55.467Z,59.41
2018-05-03T12:36:55.471Z,58.64
2018-05-03T12:37:55.474Z,57.97
2018-05-03T12:39:16.495Z,58.64
2018-05-03T12:39:55.485Z,59.25
2018-05-03T12:40:55.490Z,58.77
2018-05-03T12:41:55.497Z,57.43
2018-05-03T12:42:55.539Z,57.81
2018-05-03T12:43:55.505Z,57.90
2018-05-03T12:45:16.519Z,58.10
2018-05-03T12:45:55.515Z,58.70
2018-05-03T12:46:55.519Z,58.22
2018-05-03T12:47:55.525Z,57.75
2018-05-03T12:48:55.587Z,57.43
2018-05-03T12:49:55.539Z,58.67
2018-05-03T12:51:16.553Z,57.90
2018-05-03T12:51:55.544Z,57.81
2018-05-03T12:52:55.644Z,57.04
2018-05-03T12:53:55.561Z,56.08